マヘ島 の空港の天気 - METARとTAF

セーシェル国際空港 ( FSIA / SEZ ) - セーシェル マヘ島
飛行場実況気象(Metar)
観測時間10/21 20:00 SCT (10/21 16:00 UTC)
風向・風速北北西 4m/s
視程10km以上
天気現象
全天の4割程度の雲 雲底高度 550m
気温29℃
湿度79%
気圧1010hPa
METARFSIA 211600Z 34007KT 9999 SCT018 29/25 Q1010 NOSIG
過去の天気等 Google飛行場航空写真 Wunderground天気予報

過去48時間のMETAR

飛行場予報(TAF)
発表時間: 10/21 15:04 SCT (10/21 11:04 UTC)
予報対象時間: 21日16時 SCT ~ 22日16時 SCT
風向・風速北北西 6m/s
視程10km以上
全天の4割程度の雲 雲底高度 610m
22日2時 SCT ~ 22日10時 SCT に一時的に
視程8000m
天気現象弱いしゅう雨
少しの雲 雲底高度 300m
全天の8割程度の雲 雲底高度 490m
TAF FSIA 211104Z 2112/2212 33012KT 9999 SCT020
TEMPO
TEMPO 2122/2206 8000 -SHRA FEW010 BKN016